The Hollow, Vermont
Current Conditions -  °F | °C
As of 12:54 AM on Thursday 29 Jan 2015 (Local Time) from KBTV Reporting Station
Clear Clear  
Wind Chill: -9°   Ceiling: Unl
Heat Index:   Visibility: 10mi
Dew Point: -6°   Wind: 6mph
Humidity: 69%   Direction: 120°ESE
Pressure: 30.31"   Gusts: NA
Location:  44.2438°N, 73.1915°W
Report Text: KBTV 290554Z 12005KT 10SM CLR M17/M21 A3031 RMK AO2 SLP271 T11671211 11117 21167 51010
Loading
Personal Weather Stations






























Interactive Weather Map New forecast layout! Learn more

10-Day Weather Forecast

Advertisements
Track Severe Weather on mobile